Time;durP1;ratioP1;P1;durP2;ratioP2;P2;SDS_P1;SDS_P2;PMS_P1;PMS_P2;Temp;Humidity;BMP_temperature;BMP_pressure;BME280_temperature;BME280_humidity;BME280_pressure;Samples;Min_cycle;Max_cycle;Signal;HPM_P1;HPM_P2
2022/02/13 00:02:13;;;;;;;13.50;5.40;;;;;-2.50;99161.40;;;;110630;1253;42244;-58
2022/02/13 00:04:43;;;;;;;13.60;5.40;;;;;-2.54;99159.80;;;;110652;1251;41827;-59
2022/02/13 00:07:12;;;;;;;14.90;6.10;;;;;-2.60;99157.00;;;;110739;1251;41276;-60
2022/02/13 00:09:42;;;;;;;17.40;6.10;;;;;-2.60;99159.00;;;;110622;1253;42160;-58
2022/02/13 00:12:11;;;;;;;18.40;7.00;;;;;-2.70;99164.40;;;;110575;1251;41955;-57
2022/02/13 00:14:41;;;;;;;12.50;6.00;;;;;-2.70;99158.20;;;;110562;1254;41188;-56
2022/02/13 00:17:11;;;;;;;16.40;6.50;;;;;-2.70;99158.40;;;;110614;1251;41912;-63
2022/02/13 00:19:43;;;;;;;12.50;5.40;;;;;-2.70;99167.60;;;;110605;1251;41272;-62
2022/02/13 00:22:15;;;;;;;13.50;5.70;;;;;-2.70;99161.60;;;;110644;1253;41178;-60
2022/02/13 00:24:45;;;;;;;15.10;5.40;;;;;-2.70;99153.40;;;;110575;1253;42434;-57
2022/02/13 00:27:15;;;;;;;16.80;6.10;;;;;-2.70;99160.20;;;;110560;1251;41155;-59
2022/02/13 00:29:44;;;;;;;11.50;5.60;;;;;-2.76;99161.00;;;;110452;1253;41892;-58
2022/02/13 00:32:15;;;;;;;18.90;6.00;;;;;-2.80;99158.40;;;;110597;1253;41255;-61
2022/02/13 00:34:45;;;;;;;10.70;4.60;;;;;-2.80;99154.60;;;;110724;1251;41191;-63
2022/02/13 00:37:16;;;;;;;11.30;4.50;;;;;-2.80;99154.60;;;;110573;1253;41150;-62
2022/02/13 00:39:46;;;;;;;11.00;5.10;;;;;-2.80;99154.60;;;;110571;1251;41271;-60
2022/02/13 00:42:17;;;;;;;12.80;5.20;;;;;-2.80;99155.00;;;;110552;1251;41373;-64
2022/02/13 00:44:47;;;;;;;10.70;5.00;;;;;-2.80;99157.80;;;;110670;1250;42374;-59
2022/02/13 00:47:16;;;;;;;9.80;4.50;;;;;-2.80;99160.60;;;;110661;1253;41813;-55
2022/02/13 00:49:46;;;;;;;13.80;5.00;;;;;-2.80;99161.00;;;;110756;1251;41377;-58
2022/02/13 00:52:15;;;;;;;11.40;5.00;;;;;-2.80;99158.60;;;;110773;1253;41322;-59
2022/02/13 00:54:45;;;;;;;13.20;5.20;;;;;-2.80;99158.20;;;;110520;1254;41592;-59
2022/02/13 00:57:14;;;;;;;15.40;5.20;;;;;-2.80;99147.80;;;;110482;1252;41262;-60
2022/02/13 00:59:44;;;;;;;13.20;4.80;;;;;-2.80;99146.40;;;;110655;1251;41643;-58
2022/02/13 01:02:13;;;;;;;12.70;5.00;;;;;-2.80;99145.00;;;;110728;1251;41305;-59
2022/02/13 01:04:43;;;;;;;10.60;4.40;;;;;-2.80;99142.60;;;;110731;1251;41445;-56
2022/02/13 01:07:13;;;;;;;10.80;4.50;;;;;-2.80;99139.80;;;;110563;1253;41699;-63
2022/02/13 01:09:42;;;;;;;13.20;5.00;;;;;-2.80;99135.40;;;;110789;1251;41261;-60
2022/02/13 01:12:12;;;;;;;10.70;4.60;;;;;-2.78;99128.80;;;;110720;1251;41159;-58
2022/02/13 01:14:41;;;;;;;10.10;4.30;;;;;-2.70;99127.80;;;;110659;1250;41155;-58
2022/02/13 01:17:11;;;;;;;9.30;3.80;;;;;-2.70;99123.20;;;;110574;1251;41139;-58
2022/02/13 01:19:41;;;;;;;11.50;4.30;;;;;-2.70;99116.60;;;;110547;1253;41161;-57
2022/02/13 01:22:11;;;;;;;12.00;4.80;;;;;-2.62;99109.20;;;;110597;1251;41305;-59
2022/02/13 01:24:40;;;;;;;11.10;4.50;;;;;-2.60;99110.60;;;;110526;1254;41971;-59
2022/02/13 01:27:10;;;;;;;13.30;5.40;;;;;-2.54;99104.20;;;;110601;1253;41621;-60
2022/02/13 01:29:42;;;;;;;11.40;5.00;;;;;-2.50;99099.00;;;;110555;1251;41323;-57
2022/02/13 01:32:11;;;;;;;12.10;5.00;;;;;-2.48;99102.80;;;;110574;1253;41868;-58
2022/02/13 01:34:41;;;;;;;14.00;4.90;;;;;-2.40;99097.80;;;;110525;1254;41300;-58
2022/02/13 01:37:10;;;;;;;9.80;4.40;;;;;-2.40;99095.60;;;;110589;1251;42038;-58
2022/02/13 01:39:40;;;;;;;12.40;5.00;;;;;-2.36;99092.80;;;;110745;1251;41145;-59
2022/02/13 01:42:10;;;;;;;14.80;5.10;;;;;-2.30;99088.00;;;;110688;1250;41144;-59
2022/02/13 01:44:40;;;;;;;10.60;5.20;;;;;-2.32;99090.20;;;;110587;1251;41819;-58
2022/02/13 01:47:10;;;;;;;10.70;4.40;;;;;-2.36;99090.00;;;;110488;1253;41526;-61
2022/02/13 01:49:41;;;;;;;11.30;4.40;;;;;-2.40;99082.60;;;;110596;1253;41168;-62
2022/02/13 01:52:11;;;;;;;9.40;4.20;;;;;-2.40;99084.20;;;;110763;1251;41217;-58
2022/02/13 01:54:42;;;;;;;9.90;4.10;;;;;-2.40;99081.00;;;;110524;1254;41556;-59
2022/02/13 01:57:12;;;;;;;;;;;;;-2.48;99079.40;;;;110692;1250;41813;-58
2022/02/13 01:59:42;;;;;;;8.00;3.40;;;;;-2.50;99075.40;;;;110663;1251;41705;-64
2022/02/13 02:02:11;;;;;;;11.40;4.10;;;;;-2.50;99067.60;;;;110552;1253;41781;-59
2022/02/13 02:04:42;;;;;;;8.80;3.60;;;;;-2.50;99072.40;;;;110602;1251;41157;-58
2022/02/13 02:07:12;;;;;;;9.80;4.00;;;;;-2.50;99069.00;;;;110336;1254;41190;-58
2022/02/13 02:09:47;;;;;;;7.90;3.60;;;;;-2.50;99063.40;;;;110587;1251;42042;-58
2022/02/13 02:12:16;;;;;;;10.10;4.10;;;;;-2.50;99062.40;;;;110754;1251;42046;-57
2022/02/13 02:14:47;;;;;;;10.00;4.60;;;;;-2.50;99059.40;;;;110763;1251;41250;-59
2022/02/13 02:17:19;;;;;;;11.00;4.30;;;;;-2.58;99063.40;;;;110674;1251;41265;-57
2022/02/13 02:19:50;;;;;;;10.90;3.90;;;;;-2.60;99065.60;;;;110621;1251;41213;-58
2022/02/13 02:22:22;;;;;;;11.10;4.30;;;;;-2.60;99059.40;;;;110662;1252;41746;-58
2022/02/13 02:24:52;;;;;;;9.90;4.40;;;;;-2.60;99060.80;;;;110556;1254;41715;-57
2022/02/13 02:27:23;;;;;;;9.00;3.80;;;;;-2.60;99062.80;;;;110723;1251;41255;-57
2022/02/13 02:29:53;;;;;;;8.90;3.50;;;;;-2.60;99065.60;;;;110834;1251;41485;-58
2022/02/13 02:32:23;;;;;;;8.60;3.50;;;;;-2.60;99066.00;;;;110786;1251;41365;-57
2022/02/13 02:34:53;;;;;;;8.20;3.40;;;;;-2.60;99069.40;;;;110602;1253;41443;-58
2022/02/13 02:37:24;;;;;;;;;;;;;-2.60;99068.80;;;;110514;1251;41147;-60
2022/02/13 02:39:54;;;;;;;8.60;3.40;;;;;-2.60;99067.20;;;;110788;1253;41118;-58
2022/02/13 02:42:25;;;;;;;8.50;3.90;;;;;-2.60;99064.00;;;;110741;1251;41260;-61
2022/02/13 02:44:55;;;;;;;8.80;3.90;;;;;-2.60;99062.20;;;;110047;1254;626172;-58
2022/02/13 02:47:25;;;;;;;8.80;4.00;;;;;-2.60;99064.80;;;;110628;1251;42391;-59
2022/02/13 02:49:55;;;;;;;;;;;;;-2.70;99067.60;;;;110334;1254;42516;-58
2022/02/13 02:52:25;;;;;;;10.00;4.40;;;;;-2.72;99063.20;;;;110713;1251;41283;-59
2022/02/13 02:54:55;;;;;;;10.50;4.10;;;;;-2.80;99059.40;;;;110562;1254;41160;-58
2022/02/13 02:57:26;;;;;;;9.80;4.10;;;;;-2.80;99057.20;;;;110515;1251;41128;-57
2022/02/13 02:59:58;;;;;;;9.20;3.90;;;;;-2.84;99058.20;;;;110476;1251;41627;-60
2022/02/13 03:02:28;;;;;;;8.80;3.50;;;;;-2.80;99059.20;;;;110762;1251;41155;-58
2022/02/13 03:04:58;;;;;;;8.50;3.30;;;;;-2.80;99063.60;;;;110554;1253;42528;-60
2022/02/13 03:07:28;;;;;;;9.20;3.50;;;;;-2.80;99060.40;;;;110561;1250;41197;-57
2022/02/13 03:09:59;;;;;;;8.20;3.50;;;;;-2.80;99060.40;;;;110793;1251;41150;-59
2022/02/13 03:12:29;;;;;;;10.40;3.70;;;;;-2.80;99057.40;;;;110802;1251;41128;-58
2022/02/13 03:15:01;;;;;;;8.90;3.10;;;;;-2.80;99061.60;;;;110675;1253;41222;-58
2022/02/13 03:17:31;;;;;;;8.00;3.10;;;;;-2.80;99064.40;;;;110560;1253;42378;-58
2022/02/13 03:20:04;;;;;;;9.30;3.40;;;;;-2.80;99057.00;;;;110549;1253;41519;-57
2022/02/13 03:22:34;;;;;;;9.10;3.80;;;;;-2.80;99057.60;;;;110565;1253;41159;-58
2022/02/13 03:25:04;;;;;;;8.60;3.60;;;;;-2.84;99057.40;;;;110632;1251;41174;-58
2022/02/13 03:27:34;;;;;;;9.00;3.70;;;;;-2.90;99057.40;;;;110635;1251;41159;-59
2022/02/13 03:30:06;;;;;;;9.30;3.70;;;;;-2.90;99057.40;;;;110523;1251;41250;-58
2022/02/13 03:32:35;;;;;;;;;;;;;-2.90;99053.40;;;;110641;1251;41130;-58
2022/02/13 03:35:06;;;;;;;8.50;3.30;;;;;-2.90;99056.20;;;;110521;1251;41649;-58
2022/02/13 03:37:38;;;;;;;9.10;3.50;;;;;-2.90;99056.80;;;;110688;1251;41969;-58
2022/02/13 03:40:09;;;;;;;7.30;3.30;;;;;-2.90;99062.60;;;;110489;1253;42497;-63
2022/02/13 03:42:39;;;;;;;7.20;3.30;;;;;-2.90;99059.20;;;;110584;1251;41165;-60
2022/02/13 03:45:10;;;;;;;7.50;3.40;;;;;-2.90;99063.60;;;;110468;1253;41122;-58
2022/02/13 03:47:40;;;;;;;8.10;3.50;;;;;-2.88;99054.20;;;;110659;1251;41219;-57
2022/02/13 03:50:11;;;;;;;;;;;;;-2.80;99050.80;;;;110761;1251;41251;-57
2022/02/13 03:52:41;;;;;;;8.20;3.10;;;;;-2.80;99048.40;;;;110508;1252;41651;-60
2022/02/13 03:55:13;;;;;;;9.60;3.50;;;;;-2.80;99046.40;;;;110628;1251;41710;-58
2022/02/13 03:57:44;;;;;;;9.20;3.10;;;;;-2.80;99041.60;;;;110609;1251;41612;-58
2022/02/13 04:00:14;;;;;;;9.10;3.90;;;;;-2.80;99041.40;;;;110545;1253;41162;-55
2022/02/13 04:02:44;;;;;;;8.40;3.70;;;;;-2.80;99043.40;;;;110585;1251;41251;-59
2022/02/13 04:05:15;;;;;;;7.50;3.30;;;;;-2.82;99045.80;;;;110628;1251;41958;-59
2022/02/13 04:07:45;;;;;;;8.50;3.50;;;;;-2.88;99047.40;;;;110637;1251;41169;-59
2022/02/13 04:10:16;;;;;;;7.90;3.30;;;;;-2.88;99043.40;;;;110350;1253;41188;-56
2022/02/13 04:12:46;;;;;;;8.10;3.70;;;;;-2.90;99034.40;;;;110516;1253;41168;-60
2022/02/13 04:15:17;;;;;;;8.30;3.40;;;;;-2.90;99035.40;;;;110515;1250;41604;-58
2022/02/13 04:17:47;;;;;;;8.90;3.50;;;;;-2.90;99029.80;;;;110631;1250;41835;-58
2022/02/13 04:20:20;;;;;;;8.30;3.60;;;;;-2.90;99034.20;;;;110650;1252;41335;-57
2022/02/13 04:22:50;;;;;;;10.70;3.80;;;;;-2.90;99030.80;;;;110817;1251;41457;-58
2022/02/13 04:25:20;;;;;;;9.00;3.70;;;;;-2.96;99029.40;;;;110701;1251;41148;-59
2022/02/13 04:27:53;;;;;;;9.60;3.80;;;;;-2.98;99028.60;;;;110577;1253;41162;-59
2022/02/13 04:30:23;;;;;;;9.40;3.40;;;;;-2.96;99029.20;;;;110495;1254;41718;-57
2022/02/13 04:32:55;;;;;;;10.40;4.10;;;;;-2.98;99028.60;;;;110704;1251;41149;-58
2022/02/13 04:35:27;;;;;;;8.50;3.90;;;;;-3.00;99026.40;;;;110534;1251;42120;-60
2022/02/13 04:37:57;;;;;;;10.40;4.00;;;;;-3.00;99020.00;;;;110627;1251;41396;-59
2022/02/13 04:40:26;;;;;;;;;;;;;-3.00;99017.80;;;;110591;1253;41271;-59
2022/02/13 04:42:57;;;;;;;10.60;3.90;;;;;-3.00;99020.60;;;;110632;1251;41614;-59
2022/02/13 04:45:27;;;;;;;10.50;4.40;;;;;-3.10;99015.40;;;;110357;1253;41222;-65
2022/02/13 04:47:56;;;;;;;10.40;4.40;;;;;-3.10;99022.40;;;;110473;1254;42396;-59
2022/02/13 04:50:28;;;;;;;8.50;4.10;;;;;-3.18;99017.60;;;;110619;1253;41201;-57
2022/02/13 04:52:57;;;;;;;9.80;4.20;;;;;-3.20;99012.00;;;;110600;1251;41373;-58
2022/02/13 04:55:28;;;;;;;8.90;3.90;;;;;-3.20;99017.40;;;;110544;1253;42459;-58
2022/02/13 04:57:58;;;;;;;10.40;3.70;;;;;-3.30;99016.20;;;;110615;1250;41756;-58
2022/02/13 05:00:30;;;;;;;10.60;4.60;;;;;-3.30;99023.00;;;;110553;1251;41189;-58
2022/02/13 05:03:00;;;;;;;11.00;4.50;;;;;-3.32;99023.20;;;;110559;1253;41762;-57
2022/02/13 05:05:31;;;;;;;9.80;4.00;;;;;-3.38;99021.40;;;;110409;1255;41161;-61
2022/02/13 05:08:01;;;;;;;9.30;4.20;;;;;-3.40;99015.60;;;;110332;1254;41162;-60
2022/02/13 05:10:32;;;;;;;8.40;3.90;;;;;-3.40;99020.60;;;;110486;1253;41276;-59
2022/02/13 05:13:03;;;;;;;9.60;3.90;;;;;-3.40;99022.60;;;;110614;1253;42831;-60
2022/02/13 05:15:34;;;;;;;8.80;3.80;;;;;-3.40;99021.40;;;;110573;1251;41204;-56
2022/02/13 05:18:03;;;;;;;10.20;4.20;;;;;-3.40;99016.80;;;;110517;1253;41182;-58
2022/02/13 05:20:36;;;;;;;9.90;4.00;;;;;-3.48;99020.60;;;;110522;1252;41156;-58
2022/02/13 05:23:05;;;;;;;10.00;4.10;;;;;-3.50;99017.40;;;;110623;1253;41136;-57
2022/02/13 05:25:34;;;;;;;8.60;4.00;;;;;-3.50;99016.40;;;;110681;1253;41157;-58
2022/02/13 05:28:04;;;;;;;9.70;4.10;;;;;-3.50;99021.80;;;;110618;1251;41305;-61
2022/02/13 05:30:34;;;;;;;11.90;4.10;;;;;-3.50;99016.40;;;;110569;1253;41942;-60
2022/02/13 05:33:03;;;;;;;10.60;4.20;;;;;-3.50;99021.00;;;;110412;1254;41268;-58
2022/02/13 05:35:32;;;;;;;10.60;4.50;;;;;-3.50;99019.00;;;;110589;1253;41953;-58
2022/02/13 05:38:03;;;;;;;9.40;4.50;;;;;-3.50;99018.80;;;;110601;1253;42551;-58
2022/02/13 05:40:32;;;;;;;10.50;4.50;;;;;-3.50;99021.00;;;;110443;1253;41608;-58
2022/02/13 05:43:01;;;;;;;9.00;3.90;;;;;-3.50;99017.60;;;;110284;1253;42241;-61
2022/02/13 05:45:32;;;;;;;9.40;4.20;;;;;-3.60;99019.20;;;;110675;1251;41157;-61
2022/02/13 05:48:05;;;;;;;9.60;4.10;;;;;-3.60;99026.60;;;;110623;1253;41725;-59
2022/02/13 05:50:33;;;;;;;9.20;3.90;;;;;-3.58;99016.80;;;;110698;1250;42340;-59
2022/02/13 05:53:03;;;;;;;10.00;4.40;;;;;-3.50;99008.00;;;;110573;1253;41584;-58
2022/02/13 05:55:32;;;;;;;9.30;3.80;;;;;-3.40;99007.00;;;;110779;1250;42384;-61
2022/02/13 05:58:01;;;;;;;10.30;4.40;;;;;-3.40;99004.20;;;;110338;1253;42372;-60
2022/02/13 06:00:31;;;;;;;10.40;4.80;;;;;-3.30;99003.60;;;;110637;1253;41906;-59
2022/02/13 06:03:01;;;;;;;9.20;4.20;;;;;-3.30;99003.60;;;;110807;1250;41444;-64
2022/02/13 06:05:30;;;;;;;10.60;4.30;;;;;-3.20;99003.00;;;;110529;1254;41158;-58
2022/02/13 06:08:01;;;;;;;8.00;3.60;;;;;-3.20;99010.00;;;;110636;1251;41435;-61
2022/02/13 06:10:30;;;;;;;13.00;4.10;;;;;-3.20;99008.40;;;;110511;1253;41160;-58
2022/02/13 06:12:59;;;;;;;9.80;4.40;;;;;-3.10;99004.40;;;;110633;1250;41468;-58
2022/02/13 06:15:29;;;;;;;10.20;4.50;;;;;-3.00;99013.00;;;;110566;1252;41747;-59
2022/02/13 06:17:58;;;;;;;11.20;4.50;;;;;-2.94;99008.80;;;;110630;1253;41588;-59
2022/02/13 06:20:27;;;;;;;9.10;4.10;;;;;-2.88;99005.60;;;;110587;1251;41494;-59
2022/02/13 06:22:56;;;;;;;11.60;5.30;;;;;-2.76;98999.60;;;;110513;1253;41187;-57
2022/02/13 06:25:26;;;;;;;13.20;5.80;;;;;-2.60;99003.40;;;;110501;1253;41382;-58
2022/02/13 06:27:55;;;;;;;13.80;6.20;;;;;-2.50;98996.20;;;;110660;1251;41191;-57
2022/02/13 06:30:24;;;;;;;19.70;7.60;;;;;-2.40;98997.00;;;;110762;1251;41227;-62
2022/02/13 06:32:53;;;;;;;17.70;8.10;;;;;-2.30;98999.80;;;;110523;1253;41141;-60
2022/02/13 06:35:24;;;;;;;23.90;9.80;;;;;-2.12;98994.20;;;;110567;1253;41214;-61
2022/02/13 06:37:54;;;;;;;24.70;11.20;;;;;-2.00;98989.20;;;;110603;1252;41148;-61
2022/02/13 06:40:24;;;;;;;23.20;10.60;;;;;-1.80;98981.80;;;;110764;1251;41943;-60
2022/02/13 06:42:53;;;;;;;24.00;10.70;;;;;-1.60;98987.20;;;;110694;1250;42432;-60
2022/02/13 06:45:24;;;;;;;25.50;11.20;;;;;-1.40;98982.00;;;;110577;1253;41140;-62
2022/02/13 06:47:53;;;;;;;21.90;11.20;;;;;-1.20;98973.20;;;;110562;1253;42243;-59
2022/02/13 06:50:22;;;;;;;23.20;10.60;;;;;-0.96;98971.20;;;;110813;1250;41182;-57
2022/02/13 06:52:51;;;;;;;25.30;10.30;;;;;-0.70;98975.60;;;;110775;1251;41600;-60
2022/02/13 06:55:21;;;;;;;23.10;10.80;;;;;-0.50;98969.40;;;;110485;1253;41945;-59
2022/02/13 06:57:50;;;;;;;22.70;10.40;;;;;-0.20;98969.00;;;;110552;1253;41389;-59
2022/02/13 07:00:21;;;;;;;26.60;11.20;;;;;0.06;98964.80;;;;110761;1250;41752;-60
2022/02/13 07:02:50;;;;;;;27.60;12.60;;;;;0.30;98957.40;;;;110566;1251;41163;-60
2022/02/13 07:05:25;;;;;;;28.10;13.70;;;;;0.60;98958.40;;;;110561;1253;41257;-65
2022/02/13 07:07:54;;;;;;;37.90;15.50;;;;;0.90;98956.80;;;;110774;1250;41165;-61
2022/02/13 07:10:24;;;;;;;36.20;16.10;;;;;1.10;98951.00;;;;110697;1251;41973;-65
2022/02/13 07:12:53;;;;;;;34.70;16.50;;;;;1.30;98947.00;;;;110551;1253;41277;-62
2022/02/13 07:15:22;;;;;;;35.20;15.90;;;;;1.60;98944.60;;;;110498;1251;42398;-60
2022/02/13 07:17:52;;;;;;;36.30;17.10;;;;;1.90;98944.20;;;;110485;1251;41258;-62
2022/02/13 07:20:22;;;;;;;37.60;17.10;;;;;2.14;98943.40;;;;110543;1251;42544;-60
2022/02/13 07:22:51;;;;;;;51.00;20.20;;;;;2.40;98939.00;;;;110373;1254;41147;-59
2022/02/13 07:25:20;;;;;;;49.20;20.00;;;;;2.60;98935.20;;;;110596;1253;41256;-60
2022/02/13 07:27:49;;;;;;;41.50;18.70;;;;;2.90;98932.40;;;;110839;1250;41703;-60
2022/02/13 07:30:18;;;;;;;41.00;18.50;;;;;3.12;98929.40;;;;110690;1250;41155;-60
2022/02/13 07:32:48;;;;;;;56.20;23.50;;;;;3.36;98927.60;;;;110837;1250;41589;-67
2022/02/13 07:35:17;;;;;;;51.60;21.10;;;;;3.42;98924.40;;;;110582;1251;41373;-64
2022/02/13 07:37:46;;;;;;;54.50;22.40;;;;;3.60;98925.40;;;;110585;1253;41137;-64
2022/02/13 07:40:16;;;;;;;42.30;20.00;;;;;3.70;98917.40;;;;110597;1253;41531;-66
2022/02/13 07:42:45;;;;;;;45.00;17.50;;;;;3.90;98910.00;;;;110568;1253;41154;-62
2022/02/13 07:45:14;;;;;;;36.50;14.50;;;;;4.10;98911.20;;;;110569;1253;41647;-60
2022/02/13 07:47:43;;;;;;;32.90;14.10;;;;;4.32;98907.60;;;;110761;1251;41859;-63
2022/02/13 07:50:13;;;;;;;36.10;15.70;;;;;4.64;98906.40;;;;110626;1253;41462;-61
2022/02/13 07:52:42;;;;;;;28.10;13.90;;;;;4.70;98902.20;;;;110757;1251;41133;-59
2022/02/13 07:55:14;;;;;;;;;;;;;4.90;98901.60;;;;110722;1251;41257;-63
2022/02/13 07:57:43;;;;;;;20.30;9.20;;;;;5.20;98902.20;;;;110783;1251;41136;-65
2022/02/13 08:00:15;;;;;;;22.30;10.20;;;;;5.50;98896.40;;;;110751;1251;41986;-65
2022/02/13 08:02:45;;;;;;;19.20;7.70;;;;;5.74;98894.80;;;;110819;1250;41147;-61
2022/02/13 08:05:15;;;;;;;16.40;7.00;;;;;6.06;98898.20;;;;110597;1252;41163;-63
2022/02/13 08:07:48;;;;;;;21.10;9.00;;;;;6.44;98892.20;;;;110676;1251;41271;-63
2022/02/13 08:10:18;;;;;;;15.90;7.20;;;;;6.74;98885.20;;;;110651;1251;41168;-66
2022/02/13 08:12:47;;;;;;;16.00;7.00;;;;;7.00;98882.60;;;;110497;1252;42102;-67
2022/02/13 08:15:17;;;;;;;15.10;6.30;;;;;7.28;98882.40;;;;110578;1251;41722;-63
2022/02/13 08:17:46;;;;;;;17.10;7.70;;;;;7.50;98887.00;;;;110566;1252;41276;-58
2022/02/13 08:20:16;;;;;;;15.70;7.10;;;;;7.70;98874.60;;;;110599;1249;42220;-59
2022/02/13 08:22:45;;;;;;;12.40;5.50;;;;;8.02;98870.40;;;;110657;1251;42309;-61
2022/02/13 08:25:16;;;;;;;11.00;4.80;;;;;8.50;98867.60;;;;110579;1250;41448;-60
2022/02/13 08:27:45;;;;;;;9.70;4.30;;;;;9.02;98856.20;;;;110829;1250;41605;-61
2022/02/13 08:30:16;;;;;;;;;;;;;9.50;98851.00;;;;110806;1250;41145;-60
2022/02/13 08:32:45;;;;;;;10.30;4.20;;;;;10.54;98838.60;;;;110737;1250;41777;-61
2022/02/13 08:35:14;;;;;;;9.80;4.40;;;;;11.54;98837.60;;;;110608;1250;41502;-64
2022/02/13 08:37:43;;;;;;;8.70;3.90;;;;;12.52;98837.80;;;;110511;1251;41329;-65
2022/02/13 08:40:12;;;;;;;10.20;3.90;;;;;13.46;98829.60;;;;110381;1253;41573;-64
2022/02/13 08:42:42;;;;;;;7.70;3.10;;;;;14.28;98826.00;;;;110606;1251;41266;-65
2022/02/13 08:45:11;;;;;;;7.50;2.90;;;;;15.30;98819.80;;;;110398;1254;41159;-67
2022/02/13 08:47:40;;;;;;;11.90;3.40;;;;;16.26;98811.00;;;;110607;1251;41190;-62
2022/02/13 08:50:10;;;;;;;7.50;2.90;;;;;17.86;98801.80;;;;110537;1253;41151;-60
2022/02/13 08:52:39;;;;;;;7.50;2.80;;;;;19.74;98791.80;;;;110627;1250;41431;-62
2022/02/13 08:55:13;;;;;;;6.30;2.60;;;;;21.64;98774.20;;;;110616;1251;41391;-58
2022/02/13 08:57:43;;;;;;;8.70;2.80;;;;;23.60;98772.40;;;;110566;1253;41157;-61
2022/02/13 09:00:15;;;;;;;5.60;2.40;;;;;24.96;98766.60;;;;110765;1250;41140;-58
2022/02/13 09:02:45;;;;;;;7.60;2.90;;;;;25.76;98760.80;;;;110609;1253;41145;-63
2022/02/13 09:05:14;;;;;;;7.70;2.80;;;;;27.20;98759.00;;;;110576;1253;41883;-59
2022/02/13 09:07:44;;;;;;;6.40;2.50;;;;;28.40;98755.80;;;;110298;1254;41642;-60
2022/02/13 09:10:14;;;;;;;7.70;2.70;;;;;29.16;98750.60;;;;110588;1252;41138;-60
2022/02/13 09:12:43;;;;;;;6.70;2.50;;;;;30.10;98745.00;;;;110580;1253;41145;-66
2022/02/13 09:15:14;;;;;;;7.50;2.50;;;;;30.90;98746.60;;;;110485;1252;41232;-65
2022/02/13 09:17:44;;;;;;;7.00;2.70;;;;;30.78;98743.60;;;;110492;1251;41280;-69
2022/02/13 09:20:13;;;;;;;6.70;2.70;;;;;31.52;98742.20;;;;110655;1251;41617;-60
2022/02/13 09:22:42;;;;;;;7.80;2.60;;;;;32.40;98739.20;;;;110665;1251;41264;-60
2022/02/13 09:25:11;;;;;;;9.00;2.70;;;;;32.84;98738.60;;;;110524;1253;41180;-62
2022/02/13 09:27:41;;;;;;;7.80;2.90;;;;;33.10;98739.20;;;;110519;1253;41271;-60
2022/02/13 09:30:10;;;;;;;7.00;2.70;;;;;32.68;98737.20;;;;110601;1251;41425;-58
2022/02/13 09:32:41;;;;;;;7.30;2.80;;;;;33.34;98734.00;;;;110564;1253;41153;-58
2022/02/13 09:35:10;;;;;;;5.80;2.50;;;;;34.00;98734.80;;;;110650;1251;41156;-60
2022/02/13 09:37:40;;;;;;;8.30;2.80;;;;;34.60;98732.00;;;;110591;1251;42586;-65
2022/02/13 09:40:10;;;;;;;7.80;3.10;;;;;35.50;98727.40;;;;110543;1253;41276;-62
2022/02/13 09:42:40;;;;;;;8.50;3.60;;;;;35.86;98731.60;;;;110667;1251;41227;-67
2022/02/13 09:45:09;;;;;;;10.40;4.60;;;;;35.76;98724.60;;;;110769;1251;42162;-65
2022/02/13 09:47:39;;;;;;;12.60;6.30;;;;;35.92;98723.20;;;;110830;1250;41158;-67
2022/02/13 09:50:09;;;;;;;12.40;5.30;;;;;36.40;98719.00;;;;110564;1253;41653;-66
2022/02/13 09:52:38;;;;;;;11.70;5.20;;;;;36.64;98720.60;;;;110676;1250;42627;-60
2022/02/13 09:55:07;;;;;;;10.60;4.80;;;;;36.62;98714.60;;;;110597;1252;41526;-63
2022/02/13 10:00:48;;;;;;;23.00;11.20;;;;;37.44;98711.80;;;;110768;1250;42221;-62
2022/02/13 10:03:24;;;;;;;10.70;4.60;;;;;37.50;98706.00;;;;110708;1251;41243;-65
2022/02/13 10:06:00;;;;;;;8.80;3.80;;;;;36.90;98704.60;;;;110679;1252;41246;-68
2022/02/13 10:08:37;;;;;;;8.90;3.50;;;;;36.50;98696.60;;;;110636;1251;41631;-65
2022/02/13 10:11:30;;;;;;;8.20;3.80;;;;;36.68;98694.80;;;;110635;1251;42381;-67
2022/02/13 10:14:03;;;;;;;8.20;3.50;;;;;36.06;98691.20;;;;110589;1250;41156;-64
2022/02/13 10:16:34;;;;;;;8.40;4.00;;;;;36.70;98689.00;;;;110781;1250;41273;-66
2022/02/13 10:19:15;;;;;;;10.00;3.90;;;;;37.12;98681.40;;;;110715;1250;41366;-65
2022/02/13 10:21:53;;;;;;;9.40;4.80;;;;;35.52;98679.80;;;;110684;1250;42207;-66
2022/02/13 10:24:30;;;;;;;11.10;4.30;;;;;35.38;98674.00;;;;110688;1251;41430;-60
2022/02/13 10:27:15;;;;;;;9.00;4.10;;;;;35.60;98676.60;;;;110650;1250;41628;-61
2022/02/13 10:29:45;;;;;;;12.00;3.60;;;;;35.94;98669.40;;;;110576;1253;42386;-60
2022/02/13 10:32:17;;;;;;;8.40;3.60;;;;;34.84;98668.60;;;;110677;1250;41366;-59
2022/02/13 10:35:01;;;;;;;7.90;3.10;;;;;32.98;98659.60;;;;110671;1250;42055;-59
2022/02/13 10:37:54;;;;;;;10.60;3.40;;;;;33.86;98659.40;;;;110670;1250;41373;-60
2022/02/13 10:40:25;;;;;;;11.60;3.70;;;;;35.82;98653.20;;;;110574;1253;41335;-60
2022/02/13 10:43:05;;;;;;;8.50;3.70;;;;;35.42;98652.60;;;;110626;1250;41898;-61
2022/02/13 10:45:36;;;;;;;8.20;3.50;;;;;34.94;98648.60;;;;110859;1250;41129;-64
2022/02/13 10:48:09;;;;;;;12.20;5.30;;;;;36.04;98645.40;;;;110782;1250;41182;-60
2022/02/13 10:50:40;;;;;;;10.80;4.70;;;;;37.08;98641.00;;;;110599;1250;42745;-59
2022/02/13 10:53:10;;;;;;;8.70;3.80;;;;;34.76;98636.80;;;;110492;1251;41223;-61
2022/02/13 10:55:40;;;;;;;;;;;;;34.70;98637.20;;;;110625;1251;41609;-60
2022/02/13 10:58:09;;;;;;;7.70;3.00;;;;;34.86;98640.60;;;;110517;1253;41168;-59
2022/02/13 11:00:39;;;;;;;7.40;2.90;;;;;35.40;98632.80;;;;110756;1250;41461;-60
2022/02/13 11:03:08;;;;;;;8.00;3.70;;;;;36.36;98629.40;;;;110599;1253;41183;-60
2022/02/13 11:05:40;;;;;;;7.80;3.30;;;;;37.36;98625.20;;;;110602;1251;41154;-63
2022/02/13 11:08:12;;;;;;;8.40;3.60;;;;;38.10;98629.80;;;;110775;1250;41604;-66
2022/02/13 11:10:47;;;;;;;8.20;3.40;;;;;37.80;98617.40;;;;110645;1251;41156;-67
2022/02/13 11:13:17;;;;;;;9.20;3.10;;;;;37.30;98616.80;;;;110534;1251;41888;-68
2022/02/13 11:15:47;;;;;;;7.30;2.90;;;;;37.58;98608.00;;;;110784;1250;41207;-59
2022/02/13 11:18:31;;;;;;;9.90;3.10;;;;;38.34;98605.60;;;;110741;1250;41185;-60
2022/02/13 11:21:01;;;;;;;7.30;2.90;;;;;39.20;98612.00;;;;110690;1250;43012;-66
2022/02/13 11:23:32;;;;;;;6.70;3.00;;;;;39.20;98602.20;;;;110652;1250;41160;-60
2022/02/13 11:26:02;;;;;;;7.20;2.80;;;;;38.40;98599.80;;;;110578;1252;41277;-59
2022/02/13 11:28:46;;;;;;;7.20;2.80;;;;;35.80;98611.60;;;;110778;1250;41793;-61
2022/02/13 11:31:39;;;;;;;8.90;3.20;;;;;33.84;98607.40;;;;110722;1251;41802;-61
2022/02/13 11:34:29;;;;;;;6.30;2.70;;;;;32.88;98605.40;;;;110777;1250;41289;-66
2022/02/13 11:37:19;;;;;;;9.60;3.60;;;;;31.62;98606.40;;;;110548;1251;41197;-65
2022/02/13 11:39:50;;;;;;;8.10;2.80;;;;;30.06;98604.40;;;;110586;1253;42004;-66
2022/02/13 11:42:21;;;;;;;11.80;2.80;;;;;28.90;98599.80;;;;110780;1250;42538;-63
2022/02/13 11:44:55;;;;;;;6.80;2.80;;;;;28.82;98598.00;;;;110805;1250;41526;-66
2022/02/13 11:47:38;;;;;;;7.20;3.10;;;;;28.40;98601.80;;;;110796;1250;42372;-64
2022/02/13 11:50:09;;;;;;;6.50;2.70;;;;;27.98;98597.40;;;;110833;1250;41289;-65
2022/02/13 11:53:06;;;;;;;7.60;2.80;;;;;28.00;98588.80;;;;110792;1251;41147;-65
2022/02/13 11:55:37;;;;;;;6.70;2.70;;;;;28.76;98575.00;;;;110783;1251;41626;-60
2022/02/13 11:58:14;;;;;;;8.00;2.80;;;;;29.54;98574.20;;;;110580;1251;41431;-66
2022/02/13 12:00:51;;;;;;;8.60;3.20;;;;;29.80;98567.20;;;;110568;1250;41276;-62
2022/02/13 12:03:43;;;;;;;6.10;2.50;;;;;29.64;98568.80;;;;110777;1250;41746;-64
2022/02/13 12:06:11;;;;;;;6.50;2.60;;;;;29.70;98564.00;;;;110646;1253;41168;-63
2022/02/13 12:08:42;;;;;;;7.00;2.80;;;;;30.14;98560.20;;;;110758;1251;41157;-62
2022/02/13 12:11:12;;;;;;;6.30;2.50;;;;;30.70;98553.40;;;;110584;1253;41201;-64
2022/02/13 12:13:43;;;;;;;6.90;2.70;;;;;31.28;98551.20;;;;110468;1252;42470;-67
2022/02/13 12:16:13;;;;;;;6.30;2.50;;;;;31.90;98549.80;;;;110682;1250;41255;-65
2022/02/13 12:18:50;;;;;;;7.30;2.80;;;;;32.40;98543.60;;;;110571;1253;41335;-64
2022/02/13 12:21:28;;;;;;;6.10;2.50;;;;;32.94;98544.60;;;;110791;1250;41163;-67
2022/02/13 12:24:04;;;;;;;7.90;3.20;;;;;33.30;98535.60;;;;110649;1252;41256;-64
2022/02/13 12:26:33;;;;;;;8.30;3.00;;;;;33.30;98530.20;;;;110606;1252;41634;-64
2022/02/13 12:29:03;;;;;;;6.90;2.60;;;;;33.30;98537.20;;;;110891;1250;41613;-60